Time;durP1;ratioP1;P1;durP2;ratioP2;P2;SDS_P1;SDS_P2;PMS_P1;PMS_P2;Temp;Humidity;BMP_temperature;BMP_pressure;BME280_temperature;BME280_humidity;BME280_pressure;Samples;Min_cycle;Max_cycle;Signal;HPM_P1;HPM_P2
2023/04/02 00:00:04;;;;;;;13.57;10.10;;;;;;;;;;4968587;28;20803;-46
2023/04/02 00:02:31;;;;;;;14.80;11.57;;;;;;;;;;4964906;28;20776;-46
2023/04/02 00:05:17;;;;;;;13.40;10.50;;;;;;;;;;4960981;28;20424;-46
2023/04/02 00:07:43;;;;;;;12.43;8.87;;;;;;;;;;4960163;28;20463;-46
2023/04/02 00:10:45;;;;;;;17.27;9.57;;;;;;;;;;4957793;28;20465;-46
2023/04/02 00:13:10;;;;;;;11.70;9.00;;;;;;;;;;4923501;29;20429;-46
2023/04/02 00:15:41;;;;;;;12.30;9.40;;;;;;;;;;4953123;28;20986;-46
2023/04/02 00:18:09;;;;;;;15.13;9.67;;;;;;;;;;4971501;28;20421;-46
2023/04/02 00:20:37;;;;;;;11.83;9.97;;;;;;;;;;4961514;28;20954;-46
2023/04/02 00:23:04;;;;;;;12.53;8.93;;;;;;;;;;4965327;28;20874;-46
2023/04/02 00:25:33;;;;;;;12.37;9.20;;;;;;;;;;4963534;28;20921;-46
2023/04/02 00:27:59;;;;;;;12.97;8.90;;;;;;;;;;4968369;28;20842;-46
2023/04/02 00:30:27;;;;;;;11.40;9.47;;;;;;;;;;4963310;28;20434;-46
2023/04/02 00:32:54;;;;;;;11.80;9.47;;;;;;;;;;4960705;28;20454;-46
2023/04/02 00:35:26;;;;;;;11.47;9.00;;;;;;;;;;4962961;28;20930;-46
2023/04/02 00:37:52;;;;;;;13.07;9.63;;;;;;;;;;4963282;28;20938;-46
2023/04/02 00:40:23;;;;;;;9.80;8.03;;;;;;;;;;4961372;28;20467;-46
2023/04/02 00:42:49;;;;;;;10.17;8.50;;;;;;;;;;4963472;28;20452;-46
2023/04/02 00:45:23;;;;;;;11.20;8.47;;;;;;;;;;4962611;28;20780;-46
2023/04/02 00:47:49;;;;;;;12.33;9.03;;;;;;;;;;4958640;28;20470;-46
2023/04/02 00:50:16;;;;;;;12.10;8.30;;;;;;;;;;4950912;28;20899;-46
2023/04/02 00:52:43;;;;;;;12.30;9.03;;;;;;;;;;4966388;28;20405;-46
2023/04/02 00:55:20;;;;;;;14.10;9.80;;;;;;;;;;4963556;28;20444;-45
2023/04/02 00:57:48;;;;;;;9.20;7.63;;;;;;;;;;4962121;28;20491;-46
2023/04/02 01:00:23;;;;;;;18.20;10.90;;;;;;;;;;4970793;28;20429;-46
2023/04/02 01:03:09;;;;;;;13.73;10.20;;;;;;;;;;4962049;28;20457;-46
2023/04/02 01:05:35;;;;;;;15.75;10.93;;;;;;;;;;4957275;28;20469;-46
2023/04/02 01:08:28;;;;;;;15.43;10.87;;;;;;;;;;4963961;28;20210;-46
2023/04/02 01:11:03;;;;;;;9.70;7.20;;;;;;;;;;4960556;28;20573;-45
2023/04/02 01:13:36;;;;;;;12.93;10.33;;;;;;;;;;4961491;28;20426;-45
2023/04/02 01:16:06;;;;;;;12.00;9.70;;;;;;;;;;4964806;28;20398;-46
2023/04/02 01:18:49;;;;;;;11.23;8.97;;;;;;;;;;4954016;28;20554;-45
2023/04/02 01:21:15;;;;;;;13.00;8.50;;;;;;;;;;4954733;28;20811;-46
2023/04/02 01:23:47;;;;;;;10.53;6.97;;;;;;;;;;4960435;28;20417;-46
2023/04/02 01:26:19;;;;;;;10.47;8.50;;;;;;;;;;4949514;28;20790;-46
2023/04/02 01:29:03;;;;;;;11.33;8.60;;;;;;;;;;4961601;28;20461;-45
2023/04/02 01:31:31;;;;;;;9.60;7.50;;;;;;;;;;4950692;28;20426;-46
2023/04/02 01:33:57;;;;;;;9.15;7.18;;;;;;;;;;4968506;28;20417;-46
2023/04/02 01:36:29;;;;;;;7.67;6.40;;;;;;;;;;4963669;28;20554;-45
2023/04/02 01:39:01;;;;;;;7.95;6.72;;;;;;;;;;4963866;28;20438;-46
2023/04/02 01:41:33;;;;;;;8.65;7.20;;;;;;;;;;4963607;28;20210;-46
2023/04/02 01:44:10;;;;;;;9.82;7.82;;;;;;;;;;4967322;28;20173;-46
2023/04/02 01:46:40;;;;;;;10.48;6.55;;;;;;;;;;4965505;28;20176;-46
2023/04/02 01:49:12;;;;;;;10.50;7.07;;;;;;;;;;4962877;28;20179;-46
2023/04/02 01:51:41;;;;;;;12.40;8.82;;;;;;;;;;4963898;28;20198;-45
2023/04/02 01:54:07;;;;;;;11.57;8.37;;;;;;;;;;4965067;28;20212;-45
2023/04/02 01:56:34;;;;;;;9.48;7.10;;;;;;;;;;4967797;28;20405;-46
2023/04/02 01:59:01;;;;;;;10.60;7.73;;;;;;;;;;4965037;28;20170;-45
2023/04/02 02:01:41;;;;;;;9.43;7.10;;;;;;;;;;4964924;28;20953;-45
2023/04/02 02:04:09;;;;;;;9.50;7.20;;;;;;;;;;4965014;28;20200;-46
2023/04/02 02:06:35;;;;;;;7.43;6.03;;;;;;;;;;4962501;28;20544;-45
2023/04/02 02:09:03;;;;;;;9.00;6.83;;;;;;;;;;4962170;28;20505;-46
2023/04/02 02:11:30;;;;;;;11.05;7.95;;;;;;;;;;4955669;28;20785;-45
2023/04/02 02:13:57;;;;;;;10.93;7.97;;;;;;;;;;4961912;28;20372;-46
2023/04/02 02:16:26;;;;;;;7.85;7.05;;;;;;;;;;4961752;28;20447;-46
2023/04/02 02:18:53;;;;;;;8.93;7.10;;;;;;;;;;4961911;28;20269;-46
2023/04/02 02:21:42;;;;;;;9.27;7.40;;;;;;;;;;4962879;28;20739;-46
2023/04/02 02:24:26;;;;;;;7.63;6.80;;;;;;;;;;4955258;28;20201;-45
2023/04/02 02:27:15;;;;;;;7.88;6.90;;;;;;;;;;4957463;28;20415;-45
2023/04/02 02:29:41;;;;;;;8.63;6.97;;;;;;;;;;4946157;28;20209;-45
2023/04/02 02:32:09;;;;;;;8.88;6.93;;;;;;;;;;4962047;28;20264;-45
2023/04/02 02:34:40;;;;;;;7.30;6.38;;;;;;;;;;4966770;28;20544;-46
2023/04/02 02:37:14;;;;;;;7.60;6.53;;;;;;;;;;4966460;28;20173;-45
2023/04/02 02:39:42;;;;;;;7.88;6.35;;;;;;;;;;4965376;28;20189;-45
2023/04/02 02:42:08;;;;;;;9.75;6.93;;;;;;;;;;4973274;28;20192;-45
2023/04/02 02:44:36;;;;;;;8.50;7.30;;;;;;;;;;4965444;28;20265;-46
2023/04/02 02:47:03;;;;;;;8.02;7.10;;;;;;;;;;4958870;28;20829;-45
2023/04/02 02:49:35;;;;;;;7.60;5.25;;;;;;;;;;4963033;28;20182;-46
2023/04/02 02:52:01;;;;;;;7.15;6.15;;;;;;;;;;4966602;28;20534;-45
2023/04/02 02:54:28;;;;;;;6.93;6.23;;;;;;;;;;4969307;28;20194;-45
2023/04/02 02:56:58;;;;;;;7.97;6.03;;;;;;;;;;4965689;28;20410;-45
2023/04/02 02:59:25;;;;;;;10.15;7.40;;;;;;;;;;4976474;28;20178;-45
2023/04/02 03:01:51;;;;;;;8.15;6.70;;;;;;;;;;4968173;28;20178;-45
2023/04/02 03:04:21;;;;;;;8.85;7.15;;;;;;;;;;4969641;28;20548;-45
2023/04/02 03:06:51;;;;;;;7.15;6.45;;;;;;;;;;4967095;28;20180;-45
2023/04/02 03:09:23;;;;;;;9.60;6.32;;;;;;;;;;4950208;28;20249;-45
2023/04/02 03:11:56;;;;;;;11.00;7.38;;;;;;;;;;4972104;28;20174;-45
2023/04/02 03:14:22;;;;;;;8.70;7.07;;;;;;;;;;4957207;28;20183;-46
2023/04/02 03:16:54;;;;;;;59.77;32.23;;;;;;;;;;4965785;28;20177;-46
2023/04/02 03:19:26;;;;;;;8.15;6.82;;;;;;;;;;4957233;28;20410;-45
2023/04/02 03:21:55;;;;;;;9.48;7.18;;;;;;;;;;4964805;28;20170;-45
2023/04/02 03:24:32;;;;;;;8.13;5.63;;;;;;;;;;4964650;28;20175;-45
2023/04/02 03:27:05;;;;;;;8.82;7.13;;;;;;;;;;4964460;28;20597;-45
2023/04/02 03:29:34;;;;;;;7.72;6.30;;;;;;;;;;4962032;28;20166;-45
2023/04/02 03:32:03;;;;;;;9.30;7.07;;;;;;;;;;4966462;28;20174;-45
2023/04/02 03:34:32;;;;;;;7.53;6.68;;;;;;;;;;4961731;28;20228;-45
2023/04/02 03:36:59;;;;;;;6.45;5.85;;;;;;;;;;4969155;28;20174;-45
2023/04/02 03:39:32;;;;;;;10.43;6.60;;;;;;;;;;4967319;28;20642;-45
2023/04/02 03:42:00;;;;;;;9.50;6.95;;;;;;;;;;4965811;28;20190;-45
2023/04/02 03:44:29;;;;;;;7.47;6.65;;;;;;;;;;4969994;28;20170;-45
2023/04/02 03:47:00;;;;;;;10.52;8.00;;;;;;;;;;4963616;28;20541;-45
2023/04/02 03:49:29;;;;;;;8.77;7.68;;;;;;;;;;4962363;28;20515;-46
2023/04/02 03:52:02;;;;;;;17.63;7.55;;;;;;;;;;4959983;28;20210;-45
2023/04/02 03:54:28;;;;;;;9.80;7.80;;;;;;;;;;4970252;28;20175;-46
2023/04/02 03:56:54;;;;;;;8.93;7.43;;;;;;;;;;4971092;28;20205;-45
2023/04/02 03:59:26;;;;;;;15.50;9.00;;;;;;;;;;4967191;28;20209;-45
2023/04/02 04:02:00;;;;;;;11.30;8.82;;;;;;;;;;4967227;28;20461;-45
2023/04/02 04:04:27;;;;;;;11.13;8.38;;;;;;;;;;4967243;28;20166;-45
2023/04/02 04:06:55;;;;;;;11.23;8.68;;;;;;;;;;4966690;28;20181;-45
2023/04/02 04:09:32;;;;;;;11.60;9.43;;;;;;;;;;4963509;28;20253;-45
2023/04/02 04:12:10;;;;;;;12.25;10.73;;;;;;;;;;4965028;28;20555;-45
2023/04/02 04:14:38;;;;;;;14.77;10.35;;;;;;;;;;4964166;28;20295;-45
2023/04/02 04:17:04;;;;;;;12.32;9.90;;;;;;;;;;4962964;28;20186;-45
2023/04/02 04:19:31;;;;;;;14.20;9.00;;;;;;;;;;4962656;28;20191;-45
2023/04/02 04:22:10;;;;;;;12.38;9.27;;;;;;;;;;4967317;28;20413;-46
2023/04/02 04:24:39;;;;;;;12.20;9.02;;;;;;;;;;4966915;28;20178;-45
2023/04/02 04:27:32;;;;;;;13.55;9.68;;;;;;;;;;4966956;28;20256;-45
2023/04/02 04:29:58;;;;;;;12.55;9.75;;;;;;;;;;4958709;28;20700;-45
2023/04/02 04:32:30;;;;;;;12.67;9.43;;;;;;;;;;4962267;28;20190;-45
2023/04/02 04:35:02;;;;;;;19.63;10.35;;;;;;;;;;4964624;28;20428;-45
2023/04/02 04:37:32;;;;;;;13.75;8.82;;;;;;;;;;4969532;28;20170;-45
2023/04/02 04:40:01;;;;;;;13.63;9.93;;;;;;;;;;4963010;28;20594;-45
2023/04/02 04:42:30;;;;;;;11.32;9.65;;;;;;;;;;4960388;28;20205;-45
2023/04/02 04:45:09;;;;;;;17.23;11.88;;;;;;;;;;4958928;28;20182;-46
2023/04/02 04:47:40;;;;;;;24.30;12.10;;;;;;;;;;4955586;28;20284;-45
2023/04/02 04:50:26;;;;;;;19.08;13.60;;;;;;;;;;4966259;28;20240;-45
2023/04/02 04:52:52;;;;;;;21.00;13.07;;;;;;;;;;4962032;28;20268;-45
2023/04/02 04:55:21;;;;;;;22.43;14.10;;;;;;;;;;4964258;28;20260;-45
2023/04/02 04:57:48;;;;;;;19.90;13.35;;;;;;;;;;4966061;28;20412;-45
2023/04/02 05:00:18;;;;;;;17.17;11.73;;;;;;;;;;4964969;28;20321;-45
2023/04/02 05:02:50;;;;;;;17.50;13.48;;;;;;;;;;4962706;28;20498;-45
2023/04/02 05:05:18;;;;;;;19.60;13.48;;;;;;;;;;4955360;28;20646;-45
2023/04/02 05:07:52;;;;;;;17.27;11.90;;;;;;;;;;4961939;28;20677;-45
2023/04/02 05:10:32;;;;;;;24.00;13.68;;;;;;;;;;4963937;28;20193;-45
2023/04/02 05:13:04;;;;;;;22.58;12.18;;;;;;;;;;4963781;28;20162;-45
2023/04/02 05:15:38;;;;;;;18.30;12.40;;;;;;;;;;4960711;28;20186;-45
2023/04/02 05:18:16;;;;;;;17.70;13.25;;;;;;;;;;4962036;28;20557;-46
2023/04/02 05:20:47;;;;;;;15.85;11.35;;;;;;;;;;4968672;28;20197;-45
2023/04/02 05:23:16;;;;;;;17.70;12.38;;;;;;;;;;4965911;28;20181;-45
2023/04/02 05:26:03;;;;;;;19.08;12.15;;;;;;;;;;4965343;28;20178;-45
2023/04/02 05:28:29;;;;;;;17.35;10.75;;;;;;;;;;4959597;28;20198;-45
2023/04/02 05:31:00;;;;;;;19.83;12.77;;;;;;;;;;4964676;28;20190;-46
2023/04/02 05:33:26;;;;;;;16.48;11.18;;;;;;;;;;4967330;28;20428;-45
2023/04/02 05:36:01;;;;;;;15.60;11.40;;;;;;;;;;4965668;28;20654;-45
2023/04/02 05:38:28;;;;;;;20.73;11.68;;;;;;;;;;4973561;28;20424;-45
2023/04/02 05:41:14;;;;;;;19.63;11.90;;;;;;;;;;4965391;28;20207;-45
2023/04/02 05:43:44;;;;;;;21.20;12.45;;;;;;;;;;4965476;28;20736;-45
2023/04/02 05:46:15;;;;;;;24.35;13.35;;;;;;;;;;4968220;28;20194;-45
2023/04/02 05:48:42;;;;;;;20.08;12.23;;;;;;;;;;4961321;28;20747;-46
2023/04/02 05:51:11;;;;;;;17.60;11.45;;;;;;;;;;4961920;28;20202;-45
2023/04/02 05:53:40;;;;;;;16.15;12.07;;;;;;;;;;4960564;28;20178;-45
2023/04/02 05:56:21;;;;;;;18.67;12.23;;;;;;;;;;4965379;28;20676;-45
2023/04/02 05:58:50;;;;;;;21.23;12.15;;;;;;;;;;4969719;28;20224;-45
2023/04/02 06:01:22;;;;;;;18.85;12.32;;;;;;;;;;4972069;28;20244;-45
2023/04/02 06:03:55;;;;;;;24.48;11.35;;;;;;;;;;4973175;28;20185;-45
2023/04/02 06:06:32;;;;;;;20.55;13.02;;;;;;;;;;4954735;28;20197;-45
2023/04/02 06:09:07;;;;;;;17.45;8.90;;;;;;;;;;4953336;28;20599;-45
2023/04/02 06:11:41;;;;;;;22.98;11.98;;;;;;;;;;4961693;28;20217;-45
2023/04/02 06:14:09;;;;;;;22.42;13.10;;;;;;;;;;4961858;28;20163;-45
2023/04/02 06:16:37;;;;;;;21.05;12.43;;;;;;;;;;4949932;28;20170;-45
2023/04/02 06:19:07;;;;;;;19.25;11.40;;;;;;;;;;4956502;28;20233;-45
2023/04/02 06:21:33;;;;;;;18.77;12.20;;;;;;;;;;4960504;28;20198;-45
2023/04/02 06:24:03;;;;;;;16.20;11.20;;;;;;;;;;4962888;28;20829;-45
2023/04/02 06:26:43;;;;;;;14.40;9.45;;;;;;;;;;4959966;28;20418;-45
2023/04/02 06:29:18;;;;;;;19.45;11.15;;;;;;;;;;4961368;28;20208;-45
2023/04/02 06:31:49;;;;;;;21.52;12.63;;;;;;;;;;4968793;28;20668;-45
2023/04/02 06:34:22;;;;;;;12.43;9.65;;;;;;;;;;4967959;28;20177;-45
2023/04/02 06:36:50;;;;;;;17.58;11.68;;;;;;;;;;4964007;28;20662;-45
2023/04/02 06:39:21;;;;;;;15.10;10.43;;;;;;;;;;4961738;28;20170;-45
2023/04/02 06:42:08;;;;;;;16.02;10.73;;;;;;;;;;4968942;28;20177;-45
2023/04/02 06:44:35;;;;;;;17.42;10.82;;;;;;;;;;4946051;28;20170;-44
2023/04/02 06:47:06;;;;;;;17.38;11.25;;;;;;;;;;4954818;28;20174;-45
2023/04/02 06:49:33;;;;;;;15.40;11.70;;;;;;;;;;4972031;28;20205;-45
2023/04/02 06:52:01;;;;;;;11.45;8.05;;;;;;;;;;4961266;28;20209;-45
2023/04/02 06:54:29;;;;;;;17.45;11.13;;;;;;;;;;4965656;28;20647;-45
2023/04/02 06:56:55;;;;;;;18.02;10.27;;;;;;;;;;4961987;28;20174;-45
2023/04/02 06:59:22;;;;;;;20.08;10.98;;;;;;;;;;4964360;28;20197;-45
2023/04/02 07:01:48;;;;;;;19.30;10.73;;;;;;;;;;4964578;28;20446;-45
2023/04/02 07:04:15;;;;;;;15.67;12.10;;;;;;;;;;4956816;28;20235;-45
2023/04/02 07:06:41;;;;;;;11.60;9.60;;;;;;;;;;4972417;28;20438;-45
2023/04/02 07:09:07;;;;;;;15.67;9.73;;;;;;;;;;4953676;28;20214;-45
2023/04/02 07:11:33;;;;;;;23.75;11.70;;;;;;;;;;4960372;28;20429;-45
2023/04/02 07:13:59;;;;;;;17.63;10.88;;;;;;;;;;4961015;28;20397;-45
2023/04/02 07:16:26;;;;;;;15.13;10.20;;;;;;;;;;4952706;28;20185;-45
2023/04/02 07:18:54;;;;;;;15.70;10.23;;;;;;;;;;4968856;28;20496;-45
2023/04/02 07:21:21;;;;;;;12.52;9.85;;;;;;;;;;4963810;28;20285;-45
2023/04/02 07:23:47;;;;;;;14.05;10.32;;;;;;;;;;4961355;28;20186;-45
2023/04/02 07:26:14;;;;;;;15.50;9.55;;;;;;;;;;4967876;28;20177;-45
2023/04/02 07:28:42;;;;;;;19.85;10.05;;;;;;;;;;4962232;28;20249;-45
2023/04/02 07:31:24;;;;;;;13.25;9.63;;;;;;;;;;4966662;28;20194;-45
2023/04/02 07:33:51;;;;;;;12.55;9.88;;;;;;;;;;4966134;28;20205;-45
2023/04/02 07:36:19;;;;;;;12.07;9.60;;;;;;;;;;4967858;28;20170;-45
2023/04/02 07:38:45;;;;;;;16.05;9.35;;;;;;;;;;4965095;28;20261;-45
2023/04/02 07:41:11;;;;;;;15.80;8.50;;;;;;;;;;4967201;28;20305;-45
2023/04/02 07:43:37;;;;;;;12.15;9.43;;;;;;;;;;4964303;28;20436;-45
2023/04/02 07:46:03;;;;;;;11.80;9.32;;;;;;;;;;4965706;28;20182;-45
2023/04/02 07:48:30;;;;;;;13.40;9.18;;;;;;;;;;4972277;28;20205;-45
2023/04/02 07:50:56;;;;;;;10.05;8.38;;;;;;;;;;4963248;28;20198;-45
2023/04/02 07:53:28;;;;;;;18.85;11.60;;;;;;;;;;4957383;28;20170;-45
2023/04/02 07:55:54;;;;;;;12.40;7.95;;;;;;;;;;4955998;28;20170;-45
2023/04/02 07:58:20;;;;;;;13.60;8.30;;;;;;;;;;4963983;28;20174;-45
2023/04/02 08:00:46;;;;;;;7.38;6.68;;;;;;;;;;4962528;28;20201;-45
2023/04/02 08:03:13;;;;;;;11.43;7.87;;;;;;;;;;4964540;28;20209;-44
2023/04/02 08:05:39;;;;;;;8.80;6.10;;;;;;;;;;4968080;28;20913;-46
2023/04/02 08:08:05;;;;;;;6.07;5.43;;;;;;;;;;4963204;28;20205;-45
2023/04/02 08:10:31;;;;;;;9.02;7.15;;;;;;;;;;4965730;28;20434;-45
2023/04/02 08:12:57;;;;;;;9.40;5.73;;;;;;;;;;4964790;28;20181;-45
2023/04/02 08:15:23;;;;;;;11.90;7.13;;;;;;;;;;4964444;28;20410;-45
2023/04/02 08:17:50;;;;;;;8.97;8.07;;;;;;;;;;4964525;28;20501;-45
2023/04/02 08:20:20;;;;;;;11.02;8.73;;;;;;;;;;4966128;28;21025;-45
2023/04/02 08:22:49;;;;;;;10.68;8.10;;;;;;;;;;4967194;28;20250;-44
2023/04/02 08:25:15;;;;;;;6.68;6.07;;;;;;;;;;4958519;28;20260;-45
2023/04/02 08:27:42;;;;;;;8.27;5.60;;;;;;;;;;4961009;28;20568;-44
2023/04/02 08:30:11;;;;;;;7.78;4.72;;;;;;;;;;4968960;28;20198;-46
2023/04/02 08:32:39;;;;;;;7.57;5.50;;;;;;;;;;4965763;28;20173;-45
2023/04/02 08:35:06;;;;;;;10.77;6.45;;;;;;;;;;4967980;28;20170;-46
2023/04/02 08:37:32;;;;;;;10.82;6.22;;;;;;;;;;4961771;28;20173;-45
2023/04/02 08:39:59;;;;;;;8.00;5.17;;;;;;;;;;4965766;28;20229;-45
2023/04/02 08:42:32;;;;;;;9.20;5.03;;;;;;;;;;4961305;28;20413;-44
2023/04/02 08:45:06;;;;;;;7.32;5.15;;;;;;;;;;4966050;28;20185;-45
2023/04/02 08:47:39;;;;;;;5.82;5.22;;;;;;;;;;4950500;28;20237;-45
2023/04/02 08:50:23;;;;;;;7.80;5.47;;;;;;;;;;4967641;28;20271;-45
2023/04/02 08:52:49;;;;;;;5.97;5.30;;;;;;;;;;4963744;28;20257;-45
2023/04/02 08:55:34;;;;;;;7.00;4.70;;;;;;;;;;4967335;28;20673;-45
2023/04/02 08:58:06;;;;;;;10.63;5.70;;;;;;;;;;4962503;28;20193;-44
2023/04/02 09:00:38;;;;;;;5.00;4.50;;;;;;;;;;4961252;28;20213;-45
2023/04/02 09:03:07;;;;;;;13.85;5.78;;;;;;;;;;4964633;28;20685;-45
2023/04/02 09:05:36;;;;;;;7.80;5.17;;;;;;;;;;4966706;28;20211;-45
2023/04/02 09:08:06;;;;;;;5.53;4.63;;;;;;;;;;4959445;28;20466;-45
2023/04/02 09:10:40;;;;;;;14.45;5.28;;;;;;;;;;4966221;28;20430;-45
2023/04/02 09:13:16;;;;;;;9.20;5.05;;;;;;;;;;4963597;28;20190;-44
2023/04/02 09:15:44;;;;;;;6.83;3.80;;;;;;;;;;4962805;28;20166;-45
2023/04/02 09:18:17;;;;;;;6.03;4.32;;;;;;;;;;4960666;28;20417;-45
2023/04/02 09:20:44;;;;;;;4.68;4.00;;;;;;;;;;4953293;28;20206;-45
2023/04/02 09:23:15;;;;;;;9.95;4.40;;;;;;;;;;4966626;28;20194;-46
2023/04/02 09:25:44;;;;;;;11.65;4.35;;;;;;;;;;4964441;28;20232;-45
2023/04/02 09:28:11;;;;;;;6.47;5.15;;;;;;;;;;4954301;28;20213;-45
2023/04/02 09:30:37;;;;;;;7.90;4.50;;;;;;;;;;4949986;28;20199;-45
2023/04/02 09:33:07;;;;;;;11.83;5.30;;;;;;;;;;4952135;28;20187;-44
2023/04/02 09:35:37;;;;;;;4.60;4.13;;;;;;;;;;4953462;28;20779;-46
2023/04/02 09:38:09;;;;;;;14.13;5.35;;;;;;;;;;4954737;28;20264;-45
2023/04/02 09:40:55;;;;;;;5.15;4.65;;;;;;;;;;4958926;28;20210;-45
2023/04/02 09:43:23;;;;;;;5.82;3.85;;;;;;;;;;4950055;28;20213;-45
2023/04/02 09:45:55;;;;;;;6.90;4.45;;;;;;;;;;4954221;28;20221;-45
2023/04/02 09:48:24;;;;;;;6.38;4.15;;;;;;;;;;4941297;28;20217;-45
2023/04/02 09:50:50;;;;;;;5.78;4.55;;;;;;;;;;4953979;28;20202;-45
2023/04/02 09:53:25;;;;;;;5.10;4.50;;;;;;;;;;4954372;28;20573;-45
2023/04/02 09:56:06;;;;;;;6.97;3.60;;;;;;;;;;4950691;29;20408;-45
2023/04/02 09:58:32;;;;;;;5.45;4.95;;;;;;;;;;4951947;28;20186;-45
2023/04/02 10:00:58;;;;;;;4.13;3.70;;;;;;;;;;4953433;28;20210;-44
2023/04/02 10:03:25;;;;;;;5.90;4.00;;;;;;;;;;4954433;28;20429;-45
2023/04/02 10:06:23;;;;;;;5.20;4.03;;;;;;;;;;4953804;28;20414;-45
2023/04/02 10:08:50;;;;;;;3.90;3.50;;;;;;;;;;4942048;28;20917;-45
2023/04/02 10:11:23;;;;;;;5.10;4.45;;;;;;;;;;4953249;28;20202;-44
2023/04/02 10:13:55;;;;;;;8.00;3.95;;;;;;;;;;4953756;28;20190;-45
2023/04/02 10:16:32;;;;;;;3.90;3.60;;;;;;;;;;4953582;28;20761;-45
2023/04/02 10:19:02;;;;;;;8.60;4.13;;;;;;;;;;4953407;28;20182;-45
2023/04/02 10:21:30;;;;;;;7.90;3.95;;;;;;;;;;4952957;28;20469;-45
2023/04/02 10:23:58;;;;;;;5.18;4.65;;;;;;;;;;4951014;28;20538;-44
2023/04/02 10:26:24;;;;;;;7.68;4.75;;;;;;;;;;4953183;28;20185;-44
2023/04/02 10:29:08;;;;;;;5.33;3.90;;;;;;;;;;4953290;28;20210;-45
2023/04/02 10:31:53;;;;;;;4.93;3.37;;;;;;;;;;4948440;28;20433;-44
2023/04/02 10:34:41;;;;;;;3.80;3.50;;;;;;;;;;4953316;28;20417;-44
2023/04/02 10:37:10;;;;;;;8.23;3.72;;;;;;;;;;4953870;28;20189;-44
2023/04/02 10:39:50;;;;;;;3.42;3.13;;;;;;;;;;4953200;28;22032;-44
2023/04/02 10:42:22;;;;;;;3.53;3.30;;;;;;;;;;4953381;28;20178;-44
2023/04/02 10:44:55;;;;;;;4.10;3.70;;;;;;;;;;4953329;28;20428;-45
2023/04/02 10:47:41;;;;;;;6.27;3.43;;;;;;;;;;4953604;28;20549;-44
2023/04/02 10:50:28;;;;;;;6.20;3.30;;;;;;;;;;4952049;28;20960;-44
2023/04/02 10:53:01;;;;;;;6.53;3.80;;;;;;;;;;4953156;28;20501;-45
2023/04/02 10:55:29;;;;;;;6.17;3.90;;;;;;;;;;4954811;28;20551;-45
2023/04/02 10:57:58;;;;;;;4.20;3.60;;;;;;;;;;4957470;28;20494;-45
2023/04/02 11:00:27;;;;;;;4.50;3.60;;;;;;;;;;4956716;28;20431;-45
2023/04/02 11:02:54;;;;;;;5.03;4.30;;;;;;;;;;4964181;28;20477;-45
2023/04/02 11:05:42;;;;;;;5.27;3.77;;;;;;;;;;4956853;28;20452;-44
2023/04/02 11:08:17;;;;;;;3.57;3.27;;;;;;;;;;4967386;28;20477;-44
2023/04/02 11:10:45;;;;;;;4.57;4.27;;;;;;;;;;4966431;28;20986;-45
2023/04/02 11:13:15;;;;;;;8.60;2.70;;;;;;;;;;4967825;28;20459;-45
2023/04/02 11:15:41;;;;;;;8.40;7.50;;;;;;;;;;4968714;28;20412;-45
2023/04/02 11:18:20;;;;;;;3.37;2.73;;;;;;;;;;4963815;28;20438;-45
2023/04/02 11:20:50;;;;;;;3.47;2.90;;;;;;;;;;4964066;28;20447;-44
2023/04/02 11:23:19;;;;;;;6.77;3.87;;;;;;;;;;4957583;28;20452;-45
2023/04/02 11:25:46;;;;;;;5.37;4.87;;;;;;;;;;4965867;28;20511;-44
2023/04/02 11:28:25;;;;;;;8.33;3.27;;;;;;;;;;4955201;28;20471;-45
2023/04/02 11:30:51;;;;;;;3.30;2.87;;;;;;;;;;4956137;28;20444;-45
2023/04/02 11:33:32;;;;;;;19.27;11.43;;;;;;;;;;4956692;28;20448;-45
2023/04/02 11:35:58;;;;;;;4.73;3.27;;;;;;;;;;4956265;28;20426;-45
2023/04/02 11:38:24;;;;;;;4.13;3.73;;;;;;;;;;4956404;28;20540;-45
2023/04/02 11:40:53;;;;;;;3.30;3.00;;;;;;;;;;4956010;28;20436;-45
2023/04/02 11:43:35;;;;;;;4.17;3.80;;;;;;;;;;4967698;28;20422;-45
2023/04/02 11:46:03;;;;;;;3.33;3.03;;;;;;;;;;4966730;28;20792;-44
2023/04/02 11:48:32;;;;;;;4.60;3.70;;;;;;;;;;4962286;28;20963;-45
2023/04/02 11:50:58;;;;;;;3.30;2.87;;;;;;;;;;4965849;28;20865;-45
2023/04/02 11:53:28;;;;;;;3.20;2.90;;;;;;;;;;4966467;28;20414;-45
2023/04/02 11:55:57;;;;;;;5.33;3.10;;;;;;;;;;4963479;28;20432;-45
2023/04/02 11:58:29;;;;;;;3.20;2.90;;;;;;;;;;4963718;28;20947;-44
2023/04/02 12:01:01;;;;;;;2.80;2.33;;;;;;;;;;4968277;28;20460;-44
2023/04/02 12:03:39;;;;;;;3.30;3.00;;;;;;;;;;4957769;28;20437;-45
2023/04/02 12:06:17;;;;;;;2.40;2.10;;;;;;;;;;4970703;28;20421;-44
2023/04/02 12:09:02;;;;;;;3.13;2.83;;;;;;;;;;4963555;28;20471;-44
2023/04/02 12:11:46;;;;;;;3.30;2.90;;;;;;;;;;4960961;28;20514;-44
2023/04/02 12:14:31;;;;;;;5.83;3.57;;;;;;;;;;4966321;28;20443;-44
2023/04/02 12:16:57;;;;;;;3.97;3.20;;;;;;;;;;4955208;28;20920;-44
2023/04/02 12:19:24;;;;;;;5.97;3.97;;;;;;;;;;4955374;28;20415;-44
2023/04/02 12:21:51;;;;;;;5.67;2.53;;;;;;;;;;4955291;28;20426;-45
2023/04/02 12:24:20;;;;;;;4.67;3.20;;;;;;;;;;4955610;28;20472;-44
2023/04/02 12:26:46;;;;;;;7.60;3.33;;;;;;;;;;4955227;28;20448;-45
2023/04/02 12:29:18;;;;;;;4.97;3.57;;;;;;;;;;4953599;28;20479;-44
2023/04/02 12:31:48;;;;;;;4.00;3.60;;;;;;;;;;4955000;28;20534;-44
2023/04/02 12:34:18;;;;;;;3.13;2.77;;;;;;;;;;4936671;29;20893;-44
2023/04/02 12:37:04;;;;;;;3.90;2.63;;;;;;;;;;4953202;28;20420;-44
2023/04/02 12:39:31;;;;;;;7.00;3.23;;;;;;;;;;4955041;28;20418;-44
2023/04/02 12:41:58;;;;;;;5.77;3.60;;;;;;;;;;4955003;28;20927;-45
2023/04/02 12:44:25;;;;;;;2.63;2.43;;;;;;;;;;4961538;28;20406;-44
2023/04/02 12:46:52;;;;;;;3.13;2.70;;;;;;;;;;4955091;28;20481;-44
2023/04/02 12:49:24;;;;;;;4.33;3.33;;;;;;;;;;4954617;28;21005;-45
2023/04/02 12:51:51;;;;;;;3.83;2.93;;;;;;;;;;4955055;28;20422;-45
2023/04/02 12:54:19;;;;;;;2.90;2.70;;;;;;;;;;4955181;28;20398;-44
2023/04/02 12:56:45;;;;;;;3.60;3.10;;;;;;;;;;4955005;28;20412;-44
2023/04/02 12:59:26;;;;;;;7.43;3.40;;;;;;;;;;4953079;28;20446;-44
2023/04/02 13:01:59;;;;;;;3.97;3.37;;;;;;;;;;4954013;28;20438;-44
2023/04/02 13:04:25;;;;;;;3.13;2.93;;;;;;;;;;4955016;28;20427;-44
2023/04/02 13:06:53;;;;;;;3.90;3.60;;;;;;;;;;4954521;28;20450;-44
2023/04/02 13:09:38;;;;;;;3.80;3.50;;;;;;;;;;4954405;28;20466;-44
2023/04/02 13:12:04;;;;;;;3.50;3.20;;;;;;;;;;4954436;28;20424;-44
2023/04/02 13:14:30;;;;;;;3.77;3.20;;;;;;;;;;4954473;28;20926;-45
2023/04/02 13:16:56;;;;;;;3.60;3.30;;;;;;;;;;4954691;28;20494;-45
2023/04/02 13:19:27;;;;;;;5.70;3.97;;;;;;;;;;4962516;28;20503;-45
2023/04/02 13:21:53;;;;;;;3.57;3.27;;;;;;;;;;4962987;28;20413;-45
2023/04/02 13:24:21;;;;;;;4.03;3.10;;;;;;;;;;4962626;28;20957;-44
2023/04/02 13:26:48;;;;;;;6.07;2.63;;;;;;;;;;4963151;28;20415;-44
2023/04/02 13:29:20;;;;;;;3.50;2.73;;;;;;;;;;4961719;28;20464;-45
2023/04/02 13:31:47;;;;;;;7.53;2.90;;;;;;;;;;4965495;28;20832;-44
2023/04/02 13:34:13;;;;;;;4.50;3.20;;;;;;;;;;4962184;28;20412;-44
2023/04/02 13:36:39;;;;;;;3.40;3.10;;;;;;;;;;4961970;28;20950;-43
2023/04/02 13:39:05;;;;;;;3.40;3.10;;;;;;;;;;4963429;28;20412;-44
2023/04/02 13:41:33;;;;;;;3.63;2.77;;;;;;;;;;4962415;28;20436;-44
2023/04/02 13:44:00;;;;;;;5.90;3.23;;;;;;;;;;4965397;28;20420;-44
2023/04/02 13:46:29;;;;;;;3.43;3.10;;;;;;;;;;4967384;28;20416;-44
2023/04/02 13:48:55;;;;;;;3.40;3.10;;;;;;;;;;4964482;28;20466;-46
2023/04/02 13:51:43;;;;;;;4.20;3.30;;;;;;;;;;4956690;28;20593;-44
2023/04/02 13:54:27;;;;;;;4.40;2.60;;;;;;;;;;4960268;28;20417;-45
2023/04/02 13:56:54;;;;;;;7.37;5.93;;;;;;;;;;4961960;28;20903;-45
2023/04/02 13:59:20;;;;;;;4.47;3.33;;;;;;;;;;4953863;28;20417;-44
2023/04/02 14:01:47;;;;;;;4.80;3.33;;;;;;;;;;4952230;28;20440;-44
2023/04/02 14:04:17;;;;;;;4.63;3.10;;;;;;;;;;4961852;28;20424;-44
2023/04/02 14:07:06;;;;;;;3.70;3.07;;;;;;;;;;4962081;28;20905;-44
2023/04/02 14:09:49;;;;;;;11.43;3.70;;;;;;;;;;4956005;28;20497;-44
2023/04/02 14:12:33;;;;;;;4.13;3.60;;;;;;;;;;4953697;28;20476;-44
2023/04/02 14:15:02;;;;;;;3.17;2.87;;;;;;;;;;4962444;28;20923;-44
2023/04/02 14:17:48;;;;;;;3.03;2.83;;;;;;;;;;4964510;28;20409;-44
2023/04/02 14:20:18;;;;;;;6.37;3.70;;;;;;;;;;4964317;28;20425;-44
2023/04/02 14:22:50;;;;;;;3.70;2.77;;;;;;;;;;4962286;28;20412;-45
2023/04/02 14:25:30;;;;;;;3.23;2.93;;;;;;;;;;4953725;28;20765;-43
2023/04/02 14:27:56;;;;;;;5.87;3.20;;;;;;;;;;4967760;28;20464;-45
2023/04/02 14:30:27;;;;;;;4.50;3.00;;;;;;;;;;4959762;28;20444;-46
2023/04/02 14:32:57;;;;;;;3.07;2.73;;;;;;;;;;4961063;28;20414;-44
2023/04/02 14:35:37;;;;;;;4.53;2.87;;;;;;;;;;4963275;28;20866;-44
2023/04/02 14:38:19;;;;;;;2.67;2.53;;;;;;;;;;4963380;28;20782;-44
2023/04/02 14:40:56;;;;;;;3.10;2.43;;;;;;;;;;4963536;28;20425;-44
2023/04/02 14:43:24;;;;;;;4.33;3.13;;;;;;;;;;4954503;28;20425;-44
2023/04/02 14:45:56;;;;;;;3.77;2.63;;;;;;;;;;4958359;28;20415;-44
2023/04/02 14:48:23;;;;;;;3.77;3.10;;;;;;;;;;4962197;28;20461;-44
2023/04/02 14:50:51;;;;;;;3.40;3.10;;;;;;;;;;4960844;28;20771;-45
2023/04/02 14:53:20;;;;;;;2.80;2.60;;;;;;;;;;4947543;28;20434;-44
2023/04/02 14:55:48;;;;;;;2.63;2.40;;;;;;;;;;4964223;28;20466;-44
2023/04/02 14:58:25;;;;;;;2.83;2.63;;;;;;;;;;4960219;28;20416;-44